sensor_id;sensor_type;location;lat;lon;timestamp;P1;durP1;ratioP1;P2;durP2;ratioP2
20294;SDS011;10306;52.128;5.208;2023-06-22T00:00:31;3.47;;;3.30;;
20294;SDS011;10306;52.128;5.208;2023-06-22T00:02:57;4.10;;;3.70;;
20294;SDS011;10306;52.128;5.208;2023-06-22T00:05:23;3.57;;;3.37;;
20294;SDS011;10306;52.128;5.208;2023-06-22T00:07:49;3.70;;;3.50;;
20294;SDS011;10306;52.128;5.208;2023-06-22T00:10:15;3.60;;;3.40;;
20294;SDS011;10306;52.128;5.208;2023-06-22T00:12:41;3.90;;;3.60;;
20294;SDS011;10306;52.128;5.208;2023-06-22T00:15:07;3.63;;;3.43;;
20294;SDS011;10306;52.128;5.208;2023-06-22T00:17:33;3.80;;;3.60;;
20294;SDS011;10306;52.128;5.208;2023-06-22T00:19:59;3.57;;;3.37;;
20294;SDS011;10306;52.128;5.208;2023-06-22T00:22:25;3.50;;;3.30;;
20294;SDS011;10306;52.128;5.208;2023-06-22T00:24:53;3.43;;;3.27;;
20294;SDS011;10306;52.128;5.208;2023-06-22T00:27:19;4.10;;;3.80;;
20294;SDS011;10306;52.128;5.208;2023-06-22T00:29:45;3.80;;;3.60;;
20294;SDS011;10306;52.128;5.208;2023-06-22T00:32:11;4.63;;;4.43;;
20294;SDS011;10306;52.128;5.208;2023-06-22T00:34:37;4.33;;;4.03;;
20294;SDS011;10306;52.128;5.208;2023-06-22T00:37:03;13.27;;;4.77;;
20294;SDS011;10306;52.128;5.208;2023-06-22T00:39:29;4.70;;;4.30;;
20294;SDS011;10306;52.128;5.208;2023-06-22T00:41:58;4.50;;;4.10;;
20294;SDS011;10306;52.128;5.208;2023-06-22T00:44:24;4.70;;;4.30;;
20294;SDS011;10306;52.128;5.208;2023-06-22T00:46:50;4.13;;;3.93;;
20294;SDS011;10306;52.128;5.208;2023-06-22T00:49:16;4.10;;;3.80;;
20294;SDS011;10306;52.128;5.208;2023-06-22T00:51:42;4.17;;;3.97;;
20294;SDS011;10306;52.128;5.208;2023-06-22T00:54:10;3.60;;;3.40;;
20294;SDS011;10306;52.128;5.208;2023-06-22T00:56:38;4.30;;;4.10;;
20294;SDS011;10306;52.128;5.208;2023-06-22T00:59:04;4.17;;;3.90;;
20294;SDS011;10306;52.128;5.208;2023-06-22T01:01:30;4.33;;;4.13;;
20294;SDS011;10306;52.128;5.208;2023-06-22T01:03:57;4.63;;;4.33;;
20294;SDS011;10306;52.128;5.208;2023-06-22T01:06:26;5.07;;;4.67;;
20294;SDS011;10306;52.128;5.208;2023-06-22T01:09:02;4.13;;;3.90;;
20294;SDS011;10306;52.128;5.208;2023-06-22T01:11:33;4.33;;;4.03;;
20294;SDS011;10306;52.128;5.208;2023-06-22T01:16:55;4.23;;;3.90;;
20294;SDS011;10306;52.128;5.208;2023-06-22T01:21:47;4.50;;;4.30;;
20294;SDS011;10306;52.128;5.208;2023-06-22T01:24:40;4.70;;;4.40;;
20294;SDS011;10306;52.128;5.208;2023-06-22T01:27:09;4.30;;;4.00;;
20294;SDS011;10306;52.128;5.208;2023-06-22T01:29:39;4.50;;;4.20;;
20294;SDS011;10306;52.128;5.208;2023-06-22T01:32:05;4.57;;;4.17;;
20294;SDS011;10306;52.128;5.208;2023-06-22T01:34:32;4.60;;;4.37;;
20294;SDS011;10306;52.128;5.208;2023-06-22T01:36:59;3.80;;;3.60;;
20294;SDS011;10306;52.128;5.208;2023-06-22T01:39:25;5.00;;;4.70;;
20294;SDS011;10306;52.128;5.208;2023-06-22T01:41:51;4.37;;;4.17;;
20294;SDS011;10306;52.128;5.208;2023-06-22T01:44:19;4.93;;;4.53;;
20294;SDS011;10306;52.128;5.208;2023-06-22T01:46:46;5.17;;;4.67;;
20294;SDS011;10306;52.128;5.208;2023-06-22T01:49:13;4.30;;;3.90;;
20294;SDS011;10306;52.128;5.208;2023-06-22T01:51:39;4.90;;;4.60;;
20294;SDS011;10306;52.128;5.208;2023-06-22T01:54:06;4.87;;;4.57;;
20294;SDS011;10306;52.128;5.208;2023-06-22T01:56:33;5.00;;;4.60;;
20294;SDS011;10306;52.128;5.208;2023-06-22T01:59:02;4.73;;;4.43;;
20294;SDS011;10306;52.128;5.208;2023-06-22T02:01:35;4.73;;;4.33;;
20294;SDS011;10306;52.128;5.208;2023-06-22T02:04:04;4.80;;;4.50;;
20294;SDS011;10306;52.128;5.208;2023-06-22T02:06:33;4.50;;;4.20;;
20294;SDS011;10306;52.128;5.208;2023-06-22T02:09:02;5.27;;;4.77;;
20294;SDS011;10306;52.128;5.208;2023-06-22T02:11:28;4.60;;;4.33;;
20294;SDS011;10306;52.128;5.208;2023-06-22T02:13:55;5.07;;;4.77;;
20294;SDS011;10306;52.128;5.208;2023-06-22T02:16:22;4.93;;;4.63;;
20294;SDS011;10306;52.128;5.208;2023-06-22T02:18:49;5.33;;;4.83;;
20294;SDS011;10306;52.128;5.208;2023-06-22T02:21:20;5.40;;;5.00;;
20294;SDS011;10306;52.128;5.208;2023-06-22T02:23:47;5.53;;;5.13;;
20294;SDS011;10306;52.128;5.208;2023-06-22T02:26:13;5.00;;;4.80;;
20294;SDS011;10306;52.128;5.208;2023-06-22T02:28:39;5.60;;;4.50;;
20294;SDS011;10306;52.128;5.208;2023-06-22T02:31:05;5.43;;;5.03;;
20294;SDS011;10306;52.128;5.208;2023-06-22T02:33:31;5.97;;;5.50;;
20294;SDS011;10306;52.128;5.208;2023-06-22T02:35:57;5.50;;;5.10;;
20294;SDS011;10306;52.128;5.208;2023-06-22T02:38:23;5.83;;;5.33;;
20294;SDS011;10306;52.128;5.208;2023-06-22T02:40:49;5.80;;;5.40;;
20294;SDS011;10306;52.128;5.208;2023-06-22T02:43:15;6.27;;;5.73;;
20294;SDS011;10306;52.128;5.208;2023-06-22T02:45:41;5.57;;;5.20;;
20294;SDS011;10306;52.128;5.208;2023-06-22T02:48:07;5.80;;;5.20;;
20294;SDS011;10306;52.128;5.208;2023-06-22T02:50:33;5.80;;;5.40;;
20294;SDS011;10306;52.128;5.208;2023-06-22T02:52:59;6.20;;;5.70;;
20294;SDS011;10306;52.128;5.208;2023-06-22T02:55:25;6.57;;;6.13;;
20294;SDS011;10306;52.128;5.208;2023-06-22T02:57:51;6.03;;;5.63;;
20294;SDS011;10306;52.128;5.208;2023-06-22T03:00:18;6.10;;;5.60;;
20294;SDS011;10306;52.128;5.208;2023-06-22T03:02:44;6.30;;;5.70;;
20294;SDS011;10306;52.128;5.208;2023-06-22T03:05:10;6.37;;;5.90;;
20294;SDS011;10306;52.128;5.208;2023-06-22T03:07:41;6.50;;;5.90;;
20294;SDS011;10306;52.128;5.208;2023-06-22T03:10:11;6.80;;;6.23;;
20294;SDS011;10306;52.128;5.208;2023-06-22T03:12:38;6.77;;;6.17;;
20294;SDS011;10306;52.128;5.208;2023-06-22T03:15:07;6.93;;;6.33;;
20294;SDS011;10306;52.128;5.208;2023-06-22T03:17:34;7.47;;;6.63;;
20294;SDS011;10306;52.128;5.208;2023-06-22T03:20:03;6.47;;;5.97;;
20294;SDS011;10306;52.128;5.208;2023-06-22T03:22:34;7.60;;;6.77;;
20294;SDS011;10306;52.128;5.208;2023-06-22T03:25:00;7.23;;;6.73;;
20294;SDS011;10306;52.128;5.208;2023-06-22T03:27:26;7.23;;;6.53;;
20294;SDS011;10306;52.128;5.208;2023-06-22T03:29:52;8.47;;;7.67;;
20294;SDS011;10306;52.128;5.208;2023-06-22T03:32:18;8.13;;;7.33;;
20294;SDS011;10306;52.128;5.208;2023-06-22T03:34:44;8.70;;;7.40;;
20294;SDS011;10306;52.128;5.208;2023-06-22T03:37:14;7.93;;;7.20;;
20294;SDS011;10306;52.128;5.208;2023-06-22T03:39:40;7.37;;;6.67;;
20294;SDS011;10306;52.128;5.208;2023-06-22T03:42:06;8.43;;;6.40;;
20294;SDS011;10306;52.128;5.208;2023-06-22T03:44:33;7.47;;;6.87;;
20294;SDS011;10306;52.128;5.208;2023-06-22T03:47:01;7.43;;;6.50;;
20294;SDS011;10306;52.128;5.208;2023-06-22T03:49:27;7.20;;;6.60;;
20294;SDS011;10306;52.128;5.208;2023-06-22T03:51:53;7.20;;;6.63;;
20294;SDS011;10306;52.128;5.208;2023-06-22T03:54:19;8.10;;;7.30;;
20294;SDS011;10306;52.128;5.208;2023-06-22T03:56:45;8.70;;;7.90;;
20294;SDS011;10306;52.128;5.208;2023-06-22T03:59:11;9.33;;;8.43;;
20294;SDS011;10306;52.128;5.208;2023-06-22T04:01:37;11.23;;;8.93;;
20294;SDS011;10306;52.128;5.208;2023-06-22T04:04:03;15.03;;;9.17;;
20294;SDS011;10306;52.128;5.208;2023-06-22T04:06:29;8.67;;;7.60;;
20294;SDS011;10306;52.128;5.208;2023-06-22T04:08:55;10.13;;;8.57;;
20294;SDS011;10306;52.128;5.208;2023-06-22T04:11:21;9.53;;;8.63;;
20294;SDS011;10306;52.128;5.208;2023-06-22T04:13:47;11.23;;;9.17;;
20294;SDS011;10306;52.128;5.208;2023-06-22T04:16:14;10.13;;;9.07;;
20294;SDS011;10306;52.128;5.208;2023-06-22T04:18:40;11.23;;;10.03;;
20294;SDS011;10306;52.128;5.208;2023-06-22T04:21:07;12.03;;;10.13;;
20294;SDS011;10306;52.128;5.208;2023-06-22T04:23:33;12.43;;;10.70;;
20294;SDS011;10306;52.128;5.208;2023-06-22T04:25:59;14.00;;;9.93;;
20294;SDS011;10306;52.128;5.208;2023-06-22T04:28:25;13.47;;;10.50;;
20294;SDS011;10306;52.128;5.208;2023-06-22T04:30:51;15.50;;;11.63;;
20294;SDS011;10306;52.128;5.208;2023-06-22T04:33:17;16.43;;;12.23;;
20294;SDS011;10306;52.128;5.208;2023-06-22T04:35:46;18.37;;;11.90;;
20294;SDS011;10306;52.128;5.208;2023-06-22T04:38:12;13.00;;;11.73;;
20294;SDS011;10306;52.128;5.208;2023-06-22T04:40:39;14.47;;;11.67;;
20294;SDS011;10306;52.128;5.208;2023-06-22T04:43:05;15.00;;;12.37;;
20294;SDS011;10306;52.128;5.208;2023-06-22T04:45:31;14.57;;;12.17;;
20294;SDS011;10306;52.128;5.208;2023-06-22T04:47:57;15.60;;;13.00;;
20294;SDS011;10306;52.128;5.208;2023-06-22T04:50:23;15.10;;;11.17;;
20294;SDS011;10306;52.128;5.208;2023-06-22T04:52:50;17.37;;;12.33;;
20294;SDS011;10306;52.128;5.208;2023-06-22T04:55:16;15.63;;;13.27;;
20294;SDS011;10306;52.128;5.208;2023-06-22T04:57:46;14.17;;;12.47;;
20294;SDS011;10306;52.128;5.208;2023-06-22T05:00:16;14.73;;;12.77;;
20294;SDS011;10306;52.128;5.208;2023-06-22T05:02:43;14.23;;;12.77;;
20294;SDS011;10306;52.128;5.208;2023-06-22T05:05:10;18.03;;;12.77;;
20294;SDS011;10306;52.128;5.208;2023-06-22T05:07:39;15.83;;;12.90;;
20294;SDS011;10306;52.128;5.208;2023-06-22T05:10:08;15.17;;;13.57;;
20294;SDS011;10306;52.128;5.208;2023-06-22T05:12:35;16.90;;;13.70;;
20294;SDS011;10306;52.128;5.208;2023-06-22T05:15:00;18.20;;;13.60;;
20294;SDS011;10306;52.128;5.208;2023-06-22T05:17:27;16.63;;;14.27;;
20294;SDS011;10306;52.128;5.208;2023-06-22T05:19:53;19.23;;;14.20;;
20294;SDS011;10306;52.128;5.208;2023-06-22T05:22:20;20.83;;;15.17;;
20294;SDS011;10306;52.128;5.208;2023-06-22T05:24:46;19.73;;;15.60;;
20294;SDS011;10306;52.128;5.208;2023-06-22T05:27:12;18.50;;;15.53;;
20294;SDS011;10306;52.128;5.208;2023-06-22T05:29:39;19.53;;;15.47;;
20294;SDS011;10306;52.128;5.208;2023-06-22T05:32:05;20.07;;;16.60;;
20294;SDS011;10306;52.128;5.208;2023-06-22T05:34:31;21.63;;;15.57;;
20294;SDS011;10306;52.128;5.208;2023-06-22T05:36:57;20.03;;;15.63;;
20294;SDS011;10306;52.128;5.208;2023-06-22T05:39:26;22.00;;;17.10;;
20294;SDS011;10306;52.128;5.208;2023-06-22T05:41:52;23.17;;;17.17;;
20294;SDS011;10306;52.128;5.208;2023-06-22T05:44:18;27.20;;;16.67;;
20294;SDS011;10306;52.128;5.208;2023-06-22T05:46:44;18.90;;;16.10;;
20294;SDS011;10306;52.128;5.208;2023-06-22T05:49:14;23.47;;;17.17;;
20294;SDS011;10306;52.128;5.208;2023-06-22T05:51:40;24.73;;;17.10;;
20294;SDS011;10306;52.128;5.208;2023-06-22T05:54:06;21.67;;;16.67;;
20294;SDS011;10306;52.128;5.208;2023-06-22T05:56:33;17.73;;;15.37;;
20294;SDS011;10306;52.128;5.208;2023-06-22T05:58:59;19.75;;;17.25;;
20294;SDS011;10306;52.128;5.208;2023-06-22T06:01:25;22.08;;;18.75;;
20294;SDS011;10306;52.128;5.208;2023-06-22T06:03:51;22.30;;;18.33;;
20294;SDS011;10306;52.128;5.208;2023-06-22T06:06:18;20.57;;;17.10;;
20294;SDS011;10306;52.128;5.208;2023-06-22T06:08:53;21.15;;;16.98;;
20294;SDS011;10306;52.128;5.208;2023-06-22T06:11:19;22.20;;;18.03;;
20294;SDS011;10306;52.128;5.208;2023-06-22T06:13:45;25.75;;;19.17;;
20294;SDS011;10306;52.128;5.208;2023-06-22T06:16:11;24.50;;;17.83;;
20294;SDS011;10306;52.128;5.208;2023-06-22T06:18:37;29.52;;;19.50;;
20294;SDS011;10306;52.128;5.208;2023-06-22T06:21:03;22.83;;;17.80;;
20294;SDS011;10306;52.128;5.208;2023-06-22T06:23:29;24.00;;;18.17;;
20294;SDS011;10306;52.128;5.208;2023-06-22T06:25:55;23.83;;;18.95;;
20294;SDS011;10306;52.128;5.208;2023-06-22T06:28:21;23.60;;;18.17;;
20294;SDS011;10306;52.128;5.208;2023-06-22T06:30:47;21.60;;;18.27;;
20294;SDS011;10306;52.128;5.208;2023-06-22T06:33:13;22.10;;;17.63;;
20294;SDS011;10306;52.128;5.208;2023-06-22T06:35:39;23.10;;;18.58;;
20294;SDS011;10306;52.128;5.208;2023-06-22T06:38:05;22.05;;;18.33;;
20294;SDS011;10306;52.128;5.208;2023-06-22T06:40:31;22.52;;;18.98;;
20294;SDS011;10306;52.128;5.208;2023-06-22T06:42:57;24.92;;;18.73;;
20294;SDS011;10306;52.128;5.208;2023-06-22T06:45:23;20.38;;;17.77;;
20294;SDS011;10306;52.128;5.208;2023-06-22T06:47:50;21.27;;;17.58;;
20294;SDS011;10306;52.128;5.208;2023-06-22T06:50:17;22.80;;;17.77;;
20294;SDS011;10306;52.128;5.208;2023-06-22T06:52:43;18.60;;;16.60;;
20294;SDS011;10306;52.128;5.208;2023-06-22T06:55:09;18.92;;;16.67;;
20294;SDS011;10306;52.128;5.208;2023-06-22T06:57:37;19.20;;;17.05;;
20294;SDS011;10306;52.128;5.208;2023-06-22T07:00:06;22.17;;;17.10;;
20294;SDS011;10306;52.128;5.208;2023-06-22T07:02:37;19.88;;;16.20;;
20294;SDS011;10306;52.128;5.208;2023-06-22T07:05:02;16.52;;;14.48;;
20294;SDS011;10306;52.128;5.208;2023-06-22T07:07:29;16.30;;;14.60;;
20294;SDS011;10306;52.128;5.208;2023-06-22T07:09:55;20.00;;;15.80;;
20294;SDS011;10306;52.128;5.208;2023-06-22T07:12:21;18.85;;;16.30;;
20294;SDS011;10306;52.128;5.208;2023-06-22T07:14:47;19.83;;;16.27;;
20294;SDS011;10306;52.128;5.208;2023-06-22T07:17:13;18.50;;;15.05;;
20294;SDS011;10306;52.128;5.208;2023-06-22T07:19:39;17.92;;;15.55;;
20294;SDS011;10306;52.128;5.208;2023-06-22T07:22:07;17.17;;;15.32;;
20294;SDS011;10306;52.128;5.208;2023-06-22T07:24:33;17.00;;;15.25;;
20294;SDS011;10306;52.128;5.208;2023-06-22T07:26:59;19.27;;;16.33;;
20294;SDS011;10306;52.128;5.208;2023-06-22T07:29:27;20.65;;;16.65;;
20294;SDS011;10306;52.128;5.208;2023-06-22T07:31:53;16.13;;;14.55;;
20294;SDS011;10306;52.128;5.208;2023-06-22T07:34:21;16.80;;;15.10;;
20294;SDS011;10306;52.128;5.208;2023-06-22T07:36:47;16.88;;;15.07;;
20294;SDS011;10306;52.128;5.208;2023-06-22T07:39:13;18.60;;;16.40;;
20294;SDS011;10306;52.128;5.208;2023-06-22T07:41:39;16.65;;;14.95;;
20294;SDS011;10306;52.128;5.208;2023-06-22T07:44:06;17.20;;;15.13;;
20294;SDS011;10306;52.128;5.208;2023-06-22T07:46:32;16.88;;;15.05;;
20294;SDS011;10306;52.128;5.208;2023-06-22T07:48:58;16.63;;;14.95;;
20294;SDS011;10306;52.128;5.208;2023-06-22T07:51:24;15.05;;;13.35;;
20294;SDS011;10306;52.128;5.208;2023-06-22T07:53:51;15.48;;;13.88;;
20294;SDS011;10306;52.128;5.208;2023-06-22T07:56:17;16.50;;;13.90;;
20294;SDS011;10306;52.128;5.208;2023-06-22T07:58:45;14.43;;;12.80;;
20294;SDS011;10306;52.128;5.208;2023-06-22T08:01:11;14.63;;;13.13;;
20294;SDS011;10306;52.128;5.208;2023-06-22T08:03:38;15.43;;;13.93;;
20294;SDS011;10306;52.128;5.208;2023-06-22T08:06:04;14.07;;;12.63;;
20294;SDS011;10306;52.128;5.208;2023-06-22T08:08:30;16.02;;;13.80;;
20294;SDS011;10306;52.128;5.208;2023-06-22T08:10:56;14.52;;;12.95;;
20294;SDS011;10306;52.128;5.208;2023-06-22T08:13:22;13.93;;;12.63;;
20294;SDS011;10306;52.128;5.208;2023-06-22T08:15:48;13.20;;;11.98;;
20294;SDS011;10306;52.128;5.208;2023-06-22T08:18:15;12.82;;;11.63;;
20294;SDS011;10306;52.128;5.208;2023-06-22T08:20:41;14.13;;;12.68;;
20294;SDS011;10306;52.128;5.208;2023-06-22T08:23:07;13.45;;;12.15;;
20294;SDS011;10306;52.128;5.208;2023-06-22T08:25:33;11.65;;;10.55;;
20294;SDS011;10306;52.128;5.208;2023-06-22T08:28:00;11.55;;;9.93;;
20294;SDS011;10306;52.128;5.208;2023-06-22T08:30:26;9.02;;;8.32;;
20294;SDS011;10306;52.128;5.208;2023-06-22T08:32:52;8.90;;;8.10;;
20294;SDS011;10306;52.128;5.208;2023-06-22T08:35:21;10.35;;;9.50;;
20294;SDS011;10306;52.128;5.208;2023-06-22T08:37:48;10.50;;;9.40;;
20294;SDS011;10306;52.128;5.208;2023-06-22T08:40:20;8.38;;;7.53;;
20294;SDS011;10306;52.128;5.208;2023-06-22T08:42:47;8.05;;;7.38;;
20294;SDS011;10306;52.128;5.208;2023-06-22T08:45:14;7.18;;;6.57;;
20294;SDS011;10306;52.128;5.208;2023-06-22T08:47:40;7.50;;;6.85;;
20294;SDS011;10306;52.128;5.208;2023-06-22T08:50:06;7.32;;;6.72;;
20294;SDS011;10306;52.128;5.208;2023-06-22T08:52:33;7.50;;;6.97;;
20294;SDS011;10306;52.128;5.208;2023-06-22T08:54:59;6.43;;;5.90;;
20294;SDS011;10306;52.128;5.208;2023-06-22T08:57:26;6.68;;;6.10;;
20294;SDS011;10306;52.128;5.208;2023-06-22T08:59:52;6.07;;;5.35;;
20294;SDS011;10306;52.128;5.208;2023-06-22T09:02:18;5.10;;;4.80;;
20294;SDS011;10306;52.128;5.208;2023-06-22T09:04:45;4.82;;;4.53;;
20294;SDS011;10306;52.128;5.208;2023-06-22T09:07:11;4.78;;;4.50;;
20294;SDS011;10306;52.128;5.208;2023-06-22T09:09:37;5.18;;;4.88;;
20294;SDS011;10306;52.128;5.208;2023-06-22T09:12:03;5.43;;;5.00;;
20294;SDS011;10306;52.128;5.208;2023-06-22T09:14:29;5.20;;;4.75;;
20294;SDS011;10306;52.128;5.208;2023-06-22T09:16:55;5.00;;;4.70;;
20294;SDS011;10306;52.128;5.208;2023-06-22T09:19:21;4.57;;;4.28;;
20294;SDS011;10306;52.128;5.208;2023-06-22T09:21:47;5.50;;;5.22;;
20294;SDS011;10306;52.128;5.208;2023-06-22T09:24:13;5.75;;;5.25;;
20294;SDS011;10306;52.128;5.208;2023-06-22T09:26:39;6.72;;;6.15;;
20294;SDS011;10306;52.128;5.208;2023-06-22T09:29:05;5.03;;;4.72;;
20294;SDS011;10306;52.128;5.208;2023-06-22T09:31:31;4.55;;;4.30;;
20294;SDS011;10306;52.128;5.208;2023-06-22T09:33:57;3.67;;;3.47;;
20294;SDS011;10306;52.128;5.208;2023-06-22T09:36:23;4.13;;;3.92;;
20294;SDS011;10306;52.128;5.208;2023-06-22T09:38:49;4.40;;;4.13;;
20294;SDS011;10306;52.128;5.208;2023-06-22T09:41:23;4.78;;;4.38;;
20294;SDS011;10306;52.128;5.208;2023-06-22T09:43:49;5.88;;;5.47;;
20294;SDS011;10306;52.128;5.208;2023-06-22T09:46:15;6.85;;;6.35;;
20294;SDS011;10306;52.128;5.208;2023-06-22T09:48:42;5.60;;;5.20;;
20294;SDS011;10306;52.128;5.208;2023-06-22T09:51:08;6.70;;;4.72;;
20294;SDS011;10306;52.128;5.208;2023-06-22T09:53:34;4.30;;;4.10;;
20294;SDS011;10306;52.128;5.208;2023-06-22T09:56:00;3.63;;;3.33;;
20294;SDS011;10306;52.128;5.208;2023-06-22T09:58:26;4.15;;;3.95;;
20294;SDS011;10306;52.128;5.208;2023-06-22T10:00:52;3.70;;;3.40;;
20294;SDS011;10306;52.128;5.208;2023-06-22T10:03:19;5.13;;;4.68;;
20294;SDS011;10306;52.128;5.208;2023-06-22T10:05:45;4.85;;;4.57;;
20294;SDS011;10306;52.128;5.208;2023-06-22T10:08:11;4.00;;;3.80;;
20294;SDS011;10306;52.128;5.208;2023-06-22T10:10:37;3.65;;;3.47;;
20294;SDS011;10306;52.128;5.208;2023-06-22T10:13:07;5.00;;;4.70;;
20294;SDS011;10306;52.128;5.208;2023-06-22T10:15:35;6.28;;;4.75;;
20294;SDS011;10306;52.128;5.208;2023-06-22T10:18:01;4.07;;;3.88;;
20294;SDS011;10306;52.128;5.208;2023-06-22T10:20:27;5.80;;;5.28;;
20294;SDS011;10306;52.128;5.208;2023-06-22T10:22:53;5.97;;;5.50;;
20294;SDS011;10306;52.128;5.208;2023-06-22T10:25:19;5.85;;;5.43;;
20294;SDS011;10306;52.128;5.208;2023-06-22T10:27:45;4.90;;;4.60;;
20294;SDS011;10306;52.128;5.208;2023-06-22T10:30:12;4.07;;;3.88;;
20294;SDS011;10306;52.128;5.208;2023-06-22T10:32:38;6.60;;;4.05;;
20294;SDS011;10306;52.128;5.208;2023-06-22T10:35:05;4.68;;;4.30;;
20294;SDS011;10306;52.128;5.208;2023-06-22T10:37:31;4.30;;;4.00;;
20294;SDS011;10306;52.128;5.208;2023-06-22T10:39:57;4.32;;;4.00;;
20294;SDS011;10306;52.128;5.208;2023-06-22T10:42:23;4.50;;;4.30;;
20294;SDS011;10306;52.128;5.208;2023-06-22T10:44:49;4.32;;;4.03;;
20294;SDS011;10306;52.128;5.208;2023-06-22T10:47:15;4.78;;;4.40;;
20294;SDS011;10306;52.128;5.208;2023-06-22T10:49:41;5.03;;;4.45;;
20294;SDS011;10306;52.128;5.208;2023-06-22T10:52:07;4.93;;;4.72;;
20294;SDS011;10306;52.128;5.208;2023-06-22T10:54:34;4.32;;;4.13;;
20294;SDS011;10306;52.128;5.208;2023-06-22T10:57:00;5.25;;;4.80;;
20294;SDS011;10306;52.128;5.208;2023-06-22T10:59:26;5.13;;;4.70;;
20294;SDS011;10306;52.128;5.208;2023-06-22T11:01:53;4.90;;;4.50;;
20294;SDS011;10306;52.128;5.208;2023-06-22T11:04:19;4.72;;;4.50;;
20294;SDS011;10306;52.128;5.208;2023-06-22T11:06:45;5.53;;;5.05;;
20294;SDS011;10306;52.128;5.208;2023-06-22T11:09:11;5.22;;;4.93;;
20294;SDS011;10306;52.128;5.208;2023-06-22T11:11:37;7.85;;;4.85;;
20294;SDS011;10306;52.128;5.208;2023-06-22T11:14:03;4.85;;;4.65;;
20294;SDS011;10306;52.128;5.208;2023-06-22T11:16:29;4.57;;;4.28;;
20294;SDS011;10306;52.128;5.208;2023-06-22T11:18:55;5.22;;;4.90;;
20294;SDS011;10306;52.128;5.208;2023-06-22T11:21:21;5.03;;;4.72;;
20294;SDS011;10306;52.128;5.208;2023-06-22T11:23:47;5.35;;;5.05;;
20294;SDS011;10306;52.128;5.208;2023-06-22T11:26:13;5.45;;;5.15;;
20294;SDS011;10306;52.128;5.208;2023-06-22T11:28:39;5.00;;;4.60;;
20294;SDS011;10306;52.128;5.208;2023-06-22T11:31:05;4.90;;;4.55;;
20294;SDS011;10306;52.128;5.208;2023-06-22T11:33:32;5.20;;;4.78;;
20294;SDS011;10306;52.128;5.208;2023-06-22T11:35:58;4.47;;;4.28;;
20294;SDS011;10306;52.128;5.208;2023-06-22T11:38:25;4.90;;;4.50;;
20294;SDS011;10306;52.128;5.208;2023-06-22T11:40:50;5.05;;;4.70;;
20294;SDS011;10306;52.128;5.208;2023-06-22T11:43:16;6.43;;;5.93;;
20294;SDS011;10306;52.128;5.208;2023-06-22T11:45:42;5.47;;;5.10;;
20294;SDS011;10306;52.128;5.208;2023-06-22T11:48:08;5.40;;;5.10;;
20294;SDS011;10306;52.128;5.208;2023-06-22T11:50:34;5.97;;;5.57;;
20294;SDS011;10306;52.128;5.208;2023-06-22T11:53:01;5.13;;;4.82;;
20294;SDS011;10306;52.128;5.208;2023-06-22T11:55:28;5.07;;;4.85;;
20294;SDS011;10306;52.128;5.208;2023-06-22T11:57:54;5.30;;;4.93;;
20294;SDS011;10306;52.128;5.208;2023-06-22T12:00:21;6.13;;;5.60;;
20294;SDS011;10306;52.128;5.208;2023-06-22T12:02:49;6.13;;;5.63;;
20294;SDS011;10306;52.128;5.208;2023-06-22T12:05:16;6.47;;;5.85;;
20294;SDS011;10306;52.128;5.208;2023-06-22T12:07:42;5.57;;;5.28;;
20294;SDS011;10306;52.128;5.208;2023-06-22T12:10:08;6.57;;;6.18;;
20294;SDS011;10306;52.128;5.208;2023-06-22T12:12:34;7.38;;;6.85;;
20294;SDS011;10306;52.128;5.208;2023-06-22T12:15:00;6.75;;;6.25;;
20294;SDS011;10306;52.128;5.208;2023-06-22T12:17:28;7.03;;;6.57;;
20294;SDS011;10306;52.128;5.208;2023-06-22T12:19:55;7.65;;;7.05;;
20294;SDS011;10306;52.128;5.208;2023-06-22T12:22:21;6.65;;;6.15;;
20294;SDS011;10306;52.128;5.208;2023-06-22T12:24:47;7.03;;;6.53;;
20294;SDS011;10306;52.128;5.208;2023-06-22T12:27:12;6.72;;;6.15;;
20294;SDS011;10306;52.128;5.208;2023-06-22T12:29:41;6.50;;;6.10;;
20294;SDS011;10306;52.128;5.208;2023-06-22T12:32:07;6.93;;;6.53;;
20294;SDS011;10306;52.128;5.208;2023-06-22T12:34:33;5.93;;;5.53;;
20294;SDS011;10306;52.128;5.208;2023-06-22T12:36:59;6.90;;;6.30;;
20294;SDS011;10306;52.128;5.208;2023-06-22T12:39:25;8.18;;;7.40;;
20294;SDS011;10306;52.128;5.208;2023-06-22T12:41:51;6.65;;;6.15;;
20294;SDS011;10306;52.128;5.208;2023-06-22T12:44:17;7.00;;;6.50;;
20294;SDS011;10306;52.128;5.208;2023-06-22T12:46:43;8.48;;;7.45;;
20294;SDS011;10306;52.128;5.208;2023-06-22T12:49:09;7.32;;;6.72;;
20294;SDS011;10306;52.128;5.208;2023-06-22T12:51:39;8.65;;;8.00;;
20294;SDS011;10306;52.128;5.208;2023-06-22T12:54:05;7.63;;;6.97;;
20294;SDS011;10306;52.128;5.208;2023-06-22T12:56:31;7.07;;;6.57;;
20294;SDS011;10306;52.128;5.208;2023-06-22T12:58:57;8.80;;;8.13;;
20294;SDS011;10306;52.128;5.208;2023-06-22T13:01:23;8.95;;;8.23;;
20294;SDS011;10306;52.128;5.208;2023-06-22T13:03:49;10.00;;;9.00;;
20294;SDS011;10306;52.128;5.208;2023-06-22T13:06:15;9.75;;;8.95;;
20294;SDS011;10306;52.128;5.208;2023-06-22T13:08:41;8.52;;;7.80;;
20294;SDS011;10306;52.128;5.208;2023-06-22T13:11:08;9.32;;;8.63;;
20294;SDS011;10306;52.128;5.208;2023-06-22T13:13:34;10.25;;;9.30;;
20294;SDS011;10306;52.128;5.208;2023-06-22T13:16:00;10.88;;;9.43;;
20294;SDS011;10306;52.128;5.208;2023-06-22T13:18:26;11.57;;;10.02;;
20294;SDS011;10306;52.128;5.208;2023-06-22T13:20:52;11.82;;;9.68;;
20294;SDS011;10306;52.128;5.208;2023-06-22T13:23:19;10.18;;;9.48;;
20294;SDS011;10306;52.128;5.208;2023-06-22T13:25:46;12.05;;;10.95;;
20294;SDS011;10306;52.128;5.208;2023-06-22T13:28:12;11.38;;;10.35;;
20294;SDS011;10306;52.128;5.208;2023-06-22T13:30:39;13.18;;;11.88;;
20294;SDS011;10306;52.128;5.208;2023-06-22T13:33:05;11.75;;;10.75;;
20294;SDS011;10306;52.128;5.208;2023-06-22T13:35:31;11.82;;;10.75;;
20294;SDS011;10306;52.128;5.208;2023-06-22T13:37:57;12.25;;;11.15;;
20294;SDS011;10306;52.128;5.208;2023-06-22T13:40:23;12.77;;;11.77;;
20294;SDS011;10306;52.128;5.208;2023-06-22T13:42:48;13.02;;;11.80;;
20294;SDS011;10306;52.128;5.208;2023-06-22T13:45:14;13.55;;;12.25;;
20294;SDS011;10306;52.128;5.208;2023-06-22T13:47:42;13.20;;;12.02;;
20294;SDS011;10306;52.128;5.208;2023-06-22T13:50:08;13.40;;;12.27;;
20294;SDS011;10306;52.128;5.208;2023-06-22T13:52:34;12.63;;;11.30;;
20294;SDS011;10306;52.128;5.208;2023-06-22T13:55:01;13.57;;;12.38;;
20294;SDS011;10306;52.128;5.208;2023-06-22T13:57:27;13.07;;;11.77;;
20294;SDS011;10306;52.128;5.208;2023-06-22T13:59:53;13.75;;;12.45;;
20294;SDS011;10306;52.128;5.208;2023-06-22T14:02:19;12.68;;;11.48;;
20294;SDS011;10306;52.128;5.208;2023-06-22T14:04:45;12.75;;;11.63;;
20294;SDS011;10306;52.128;5.208;2023-06-22T14:07:11;13.80;;;12.60;;
20294;SDS011;10306;52.128;5.208;2023-06-22T14:09:37;14.13;;;12.82;;
20294;SDS011;10306;52.128;5.208;2023-06-22T14:12:05;14.00;;;12.70;;
20294;SDS011;10306;52.128;5.208;2023-06-22T14:14:32;14.20;;;12.82;;
20294;SDS011;10306;52.128;5.208;2023-06-22T14:16:58;14.45;;;12.98;;
20294;SDS011;10306;52.128;5.208;2023-06-22T14:19:24;13.63;;;12.32;;
20294;SDS011;10306;52.128;5.208;2023-06-22T14:21:50;13.40;;;12.20;;
20294;SDS011;10306;52.128;5.208;2023-06-22T14:24:17;14.07;;;12.77;;
20294;SDS011;10306;52.128;5.208;2023-06-22T14:26:43;14.70;;;12.45;;
20294;SDS011;10306;52.128;5.208;2023-06-22T14:29:08;14.70;;;13.40;;
20294;SDS011;10306;52.128;5.208;2023-06-22T14:31:34;14.27;;;12.90;;
20294;SDS011;10306;52.128;5.208;2023-06-22T14:34:00;14.85;;;13.43;;
20294;SDS011;10306;52.128;5.208;2023-06-22T14:36:28;14.68;;;13.38;;
20294;SDS011;10306;52.128;5.208;2023-06-22T14:38:54;16.23;;;13.45;;